Dades meteomassalio
Diari Summary for Maig 11, 2017 Units:  English    Metric   Both
« Previous Day
Next Day »
Diari Semanal Mensual Anual Personalitzat
  Maxima: Minima: Mijana:
Temperatura: TemperatureC °F 14.9 °F 18.9 °F
Rosada: DewpointC °F 7.4 °F 11.2 °F
Humitat: Humidity % 35 % 64 %
Velocitat del vent: WindSpeedKMH mph 0.0 mph 9.5 mph
Racha vent: WindSpeedGustKMH mph - -
Vent:- - WSW
Pressio: PressurehPa in 997.9 in -
Pluja: 3.0 in    
Historical Graphs
 
 
Tabular Data for Maig 11, 2017
Time Temperature Dew Point Pressure Wind Wind Speed Wind Gust Humidity Rainfall Rate (Hourly) solar Conditions
TemperatureC °F DewpointC °F PressurehPa in Calm     Humidity % HourlyPrecipMM in SolarRadiationWatts/m^2 W/m2 Conditions
00:02 16.3 °F 13.8 °F 1000.9 in Calm     85 % 0.0 in 0.0 W/m2 RA
00:07 16.2 °F 13.7 °F 1000.9 in Calm     85 % 0.0 in 0.0 W/m2 CLR
00:12 16.2 °F 13.7 °F 1000.9 in ESE 6.4 mph 6.4 mph 85 % 0.0 in 0.0 W/m2 CLR
00:17 16.2 °F 13.8 °F 1000.9 in ESE 8.0 mph 8.0 mph 86 % 0.0 in 0.0 W/m2 CLR
00:22 16.1 °F 13.8 °F 1000.9 in ESE 5.6 mph 5.6 mph 86 % 0.0 in 0.0 W/m2 CLR
00:27 16.1 °F 13.8 °F 1000.9 in East 3.7 mph   86 % 0.0 in 0.0 W/m2 CLR
00:32 16.1 °F 13.7 °F 1000.9 in ESE 11.1 mph 11.1 mph 86 % 0.0 in 0.0 W/m2 CLR
00:37 16.1 °F 13.7 °F 1000.6 in Calm     86 % 0.0 in 0.0 W/m2 CLR
00:42 16.0 °F 13.8 °F 1000.6 in Calm     87 % 0.0 in 0.0 W/m2 CLR
00:47 16.0 °F 13.8 °F 1000.6 in Calm     87 % 0.0 in 0.0 W/m2 CLR
00:52 15.9 °F 13.8 °F 1000.9 in Calm     87 % 0.0 in 0.0 W/m2 CLR
00:57 15.9 °F 13.8 °F 1001.2 in Calm     87 % 0.0 in 0.0 W/m2 CLR
01:02 16.1 °F 13.7 °F 1000.9 in SE 16.7 mph 16.7 mph 86 % 0.0 in 0.0 W/m2 CLR
01:07 16.2 °F 13.7 °F 1000.9 in ESE 11.1 mph 11.1 mph 85 % 0.0 in 0.0 W/m2 CLR
01:12 16.2 °F 13.5 °F 1000.9 in Calm     84 % 0.0 in 0.0 W/m2 CLR
01:17 16.2 °F 13.5 °F 1000.9 in Calm     84 % 0.0 in 0.0 W/m2 CLR
01:22 16.2 °F 13.5 °F 1000.9 in Calm     84 % 0.0 in 0.0 W/m2 CLR
01:27 16.3 °F 13.6 °F 1000.9 in Calm     84 % 0.3 in 0.0 W/m2 RA
01:32 16.2 °F 13.7 °F 1000.6 in Calm     85 % 0.3 in 0.0 W/m2
01:37 16.1 °F 13.7 °F 1000.6 in Calm     86 % 0.3 in 0.0 W/m2 CLR
01:42 16.0 °F 13.8 °F 1000.9 in Calm     87 % 0.3 in 0.0 W/m2 CLR
01:48 15.9 °F 13.8 °F 1000.9 in SE 9.7 mph 9.7 mph 87 % 0.5 in 0.0 W/m2 RA
01:53 15.9 °F 13.7 °F 1000.9 in SE 13.0 mph 13.0 mph 87 % 0.5 in 0.0 W/m2 RA
01:58 15.8 °F 13.7 °F 1000.9 in SE 13.0 mph 13.0 mph 87 % 0.5 in 0.0 W/m2 CLR
02:03 15.8 °F 13.8 °F 1000.9 in SSE 11.3 mph 11.3 mph 88 % 0.5 in 0.0 W/m2 CLR
02:08 15.8 °F 13.8 °F 1001.2 in SSE 14.5 mph 14.5 mph 88 % 0.8 in 0.0 W/m2 RA
02:13 15.6 °F 13.8 °F 1000.9 in SE 16.7 mph 16.7 mph 89 % 1.3 in 0.0 W/m2 RA
02:18 15.6 °F 13.7 °F 1000.9 in SE 16.7 mph 16.7 mph 89 % 1.3 in 0.0 W/m2 CLR
02:23 15.5 °F 13.7 °F 1000.9 in SE 16.7 mph 16.7 mph 89 % 1.5 in 0.0 W/m2 RA
02:28 15.4 °F 13.8 °F 1000.9 in SE 12.9 mph 12.9 mph 90 % 1.5 in 0.0 W/m2 RA
02:33 15.4 °F 13.8 °F 1000.9 in SSE 5.6 mph   90 % 1.5 in 0.0 W/m2
02:38 15.4 °F 13.8 °F 1000.9 in SE 9.7 mph 9.7 mph 90 % 1.5 in 0.0 W/m2 CLR
02:43 15.3 °F 13.7 °F 1000.6 in SE 11.1 mph 11.1 mph 90 % 1.5 in 0.0 W/m2 CLR
02:48 15.3 °F 13.8 °F 1000.6 in Calm     91 % 1.5 in 0.0 W/m2 CLR
02:54 15.3 °F 13.9 °F 1000.6 in SSE 9.3 mph 9.3 mph 91 % 1.3 in 0.0 W/m2 CLR
02:59 15.3 °F 13.7 °F 1000.6 in Calm     90 % 1.3 in 0.0 W/m2 CLR
03:04 15.3 °F 13.7 °F 1000.2 in SE 14.8 mph 14.8 mph 90 % 1.3 in 0.0 W/m2 CLR
03:09 15.3 °F 13.7 °F 999.9 in SSE 11.1 mph 11.1 mph 90 % 1.0 in 0.0 W/m2 CLR
03:14 15.3 °F 13.7 °F 1000.2 in Calm     90 % 0.8 in 0.0 W/m2 RA
03:20 15.3 °F 13.9 °F 999.9 in Calm     91 % 0.5 in 0.0 W/m2
03:25 15.3 °F 13.8 °F 999.9 in Calm     91 % 0.5 in 0.0 W/m2 CLR
03:30 15.3 °F 13.8 °F 999.9 in SSE 3.7 mph 3.7 mph 91 % 0.3 in 0.0 W/m2 CLR
03:36 15.3 °F 13.8 °F 999.5 in Calm     91 % 0.3 in 0.0 W/m2 CLR
03:41 15.3 °F 13.8 °F 999.9 in Calm     91 % 0.5 in 0.0 W/m2 RA
03:46 15.2 °F 13.8 °F 999.5 in Calm     91 % 0.5 in 0.0 W/m2 CLR
03:51 15.2 °F 13.8 °F 999.5 in Calm     91 % 0.5 in 0.0 W/m2 RA
03:56 15.2 °F 13.8 °F 999.5 in Calm     91 % 0.5 in 0.0 W/m2 CLR
04:01 15.2 °F 13.8 °F 999.2 in Calm     91 % 0.5 in 0.0 W/m2 CLR
04:06 15.2 °F 13.8 °F 999.2 in Calm     91 % 0.5 in 0.0 W/m2 CLR
04:11 15.2 °F 13.8 °F 999.2 in Calm     91 % 0.5 in 0.0 W/m2 CLR
04:16 15.2 °F 13.8 °F 999.2 in Calm     91 % 0.5 in 0.0 W/m2 CLR
04:21 15.2 °F 13.8 °F 999.2 in Calm     91 % 0.5 in 0.0 W/m2 CLR
04:26 15.2 °F 13.7 °F 999.2 in Calm     91 % 0.5 in 0.0 W/m2 CLR
04:31 15.2 °F 13.8 °F 999.2 in SE 6.4 mph 6.4 mph 91 % 0.5 in 0.0 W/m2 CLR
04:36 15.2 °F 13.8 °F 998.9 in Calm     91 % 0.5 in 0.0 W/m2 CLR
04:41 15.2 °F 13.8 °F 998.9 in Calm     91 % 0.3 in 0.0 W/m2 CLR
04:46 15.2 °F 13.8 °F 998.9 in SSW 3.7 mph 3.7 mph 91 % 0.3 in 0.0 W/m2 CLR
04:51 15.2 °F 13.7 °F 998.9 in Calm     91 % 0.0 in 0.0 W/m2 CLR
04:56 15.2 °F 13.7 °F 998.9 in SSE 11.3 mph 11.3 mph 91 % 0.0 in 0.0 W/m2 CLR
05:01 15.2 °F 13.6 °F 998.5 in SSE 14.8 mph 14.8 mph 90 % 0.0 in 0.0 W/m2 CLR
05:06 15.2 °F 13.6 °F 998.9 in SE 7.4 mph 7.4 mph 90 % 0.0 in 0.0 W/m2 CLR
05:11 15.2 °F 13.6 °F 998.5 in SSE 11.1 mph 11.1 mph 90 % 0.0 in 0.0 W/m2 CLR
05:16 15.2 °F 13.6 °F 998.5 in SE 11.1 mph 11.1 mph 90 % 0.0 in 0.0 W/m2 CLR
05:21 15.2 °F 13.6 °F 998.5 in Calm     90 % 0.0 in 0.0 W/m2 CLR
05:26 15.2 °F 13.6 °F 998.5 in SSW 9.3 mph 9.3 mph 90 % 0.0 in 0.0 W/m2 CLR
05:31 15.2 °F 13.6 °F 998.5 in South 1.9 mph   90 % 0.0 in 0.0 W/m2 CLR
05:36 15.2 °F 13.6 °F 998.5 in Calm     90 % 0.0 in 0.0 W/m2 CLR
05:41 15.2 °F 13.6 °F 998.2 in SSE 11.3 mph 11.3 mph 90 % 0.0 in 0.0 W/m2 CLR
05:46 15.2 °F 13.4 °F 998.2 in SSE 13.0 mph 13.0 mph 89 % 0.0 in 0.0 W/m2 CLR
05:51 15.3 °F 13.5 °F 998.2 in SE 11.3 mph 11.3 mph 89 % 0.0 in 0.0 W/m2 CLR
05:56 15.3 °F 13.6 °F 998.5 in South 11.1 mph 11.1 mph 89 % 0.0 in 0.0 W/m2 CLR
06:01 15.3 °F 13.6 °F 998.5 in Calm     89 % 0.0 in 0.0 W/m2 CLR
06:06 15.3 °F 13.5 °F 998.5 in Calm     89 % 0.0 in 0.0 W/m2 CLR
06:11 15.2 °F 13.4 °F 998.5 in South 7.4 mph 7.4 mph 89 % 0.0 in 0.0 W/m2 CLR
06:16 15.3 °F 13.5 °F 998.5 in SSE 13.0 mph 13.0 mph 89 % 0.0 in 0.0 W/m2 CLR
06:21 15.3 °F 13.6 °F 998.5 in Calm     89 % 0.0 in 0.0 W/m2 CLR
06:26 15.3 °F 13.6 °F 998.5 in South 3.2 mph 3.2 mph 89 % 0.0 in 0.0 W/m2 CLR
06:31 15.3 °F 13.6 °F 998.9 in Calm     89 % 0.0 in 0.0 W/m2 CLR
06:36 15.3 °F 13.5 °F 998.9 in Calm     89 % 0.0 in 0.0 W/m2 OVC
06:41 15.2 °F 13.4 °F 998.9 in Calm     89 % 0.0 in 0.0 W/m2 OVC
06:46 15.2 °F 13.4 °F 998.9 in Calm     89 % 0.0 in 0.0 W/m2 OVC
06:51 15.1 °F 13.5 °F 998.9 in Calm     90 % 0.0 in 0.0 W/m2 OVC
06:56 15.0 °F 13.4 °F 999.2 in Calm     90 % 0.0 in 0.0 W/m2 OVC
07:01 14.9 °F 13.3 °F 999.2 in Calm     90 % 0.3 in 0.0 W/m2 RA
07:06 14.9 °F 13.3 °F 999.2 in Calm     90 % 0.5 in 0.0 W/m2 RA
07:11 14.9 °F 13.3 °F 999.2 in Calm     90 % 0.5 in 0.0 W/m2 CLR
07:16 14.9 °F 13.3 °F 999.2 in Calm     90 % 0.5 in 11.0 W/m2 BKN
07:21 14.9 °F 13.3 °F 999.2 in Calm     90 % 0.5 in 19.0 W/m2 RA
07:26 14.9 °F 13.3 °F 998.2 in SSE 18.5 mph 18.5 mph 90 % 0.5 in 19.0 W/m2 BKN
07:31 15.3 °F 13.5 °F 998.2 in SSE 18.5 mph 18.5 mph 89 % 0.5 in 19.0 W/m2 BKN
07:36 15.3 °F 13.3 °F 998.5 in SE 7.4 mph 7.4 mph 88 % 0.5 in 18.0 W/m2 BKN
07:41 15.1 °F 13.3 °F 998.2 in SE 5.6 mph 5.6 mph 89 % 0.5 in 23.0 W/m2 BKN
07:46 14.9 °F 13.2 °F 998.2 in SSE 11.1 mph 11.1 mph 89 % 0.5 in 21.0 W/m2 BKN
07:51 14.9 °F 13.3 °F 998.2 in SSE 13.0 mph 13.0 mph 90 % 0.5 in 49.0 W/m2 BKN
07:56 14.9 °F 13.2 °F 997.9 in South 13.0 mph 13.0 mph 89 % 0.5 in 102.0 W/m2 SCT
08:01 15.1 °F 13.3 °F 997.9 in South 9.3 mph   89 % 0.5 in 107.0 W/m2 FEW
08:06 15.2 °F 13.4 °F 998.2 in Calm     89 % 0.3 in 130.0 W/m2 CLR
08:12 15.3 °F 13.5 °F 998.2 in Calm     89 % 0.3 in 109.0 W/m2 CLR
08:17 15.3 °F 13.6 °F 998.5 in Calm     89 % 0.3 in 118.0 W/m2 CLR
08:22 15.4 °F 13.6 °F 998.5 in Calm     89 % 0.0 in 111.0 W/m2 CLR
08:27 15.5 °F 13.5 °F 998.5 in WSW 8.0 mph 8.0 mph 88 % 0.0 in 93.0 W/m2 CLR
08:32 15.6 °F 13.4 °F 998.9 in Calm     87 % 0.0 in 56.0 W/m2 FEW
08:37 15.7 °F 13.6 °F 998.5 in SW 3.7 mph   87 % 0.0 in 70.0 W/m2 FEW
08:42 15.8 °F 13.4 °F 998.9 in Calm     86 % 0.0 in 88.0 W/m2 FEW
08:47 15.8 °F 13.5 °F 998.9 in Calm     86 % 0.0 in 72.0 W/m2 FEW
08:52 15.9 °F 13.6 °F 998.9 in Calm     86 % 0.0 in 70.0 W/m2 FEW
08:57 15.9 °F 13.6 °F 998.9 in Calm     86 % 0.0 in 76.0 W/m2 FEW
09:02 16.0 °F 13.7 °F 998.9 in Calm     86 % 0.0 in 74.0 W/m2 FEW
09:07 16.0 °F 13.7 °F 998.9 in Calm     86 % 0.0 in 88.0 W/m2 FEW
09:12 15.9 °F 13.4 °F 998.9 in Calm     85 % 0.0 in 83.0 W/m2 FEW
09:17 16.0 °F 13.3 °F 998.9 in Calm     84 % 0.0 in 100.0 W/m2 CLR
09:22 16.1 °F 13.2 °F 998.9 in Calm     83 % 0.0 in 120.0 W/m2 CLR
09:27 16.2 °F 13.3 °F 998.9 in Calm     83 % 0.0 in 139.0 W/m2 CLR
09:32 16.6 °F 14.4 °F 998.9 in Calm     87 % 0.0 in 439.0 W/m2 CLR
09:37 16.9 °F 14.9 °F 998.9 in Calm     88 % 0.0 in 394.0 W/m2 CLR
09:42 17.3 °F 14.9 °F 998.9 in Calm     86 % 0.0 in 88.0 W/m2 FEW
09:47 17.6 °F 14.4 °F 998.9 in Calm     82 % 0.0 in 476.0 W/m2 FEW
09:52 17.8 °F 14.3 °F 998.9 in Calm     80 % 0.0 in 508.0 W/m2 CLR
09:57 18.1 °F 14.2 °F 998.9 in Calm     78 % 0.0 in 533.0 W/m2 CLR
10:02 18.4 °F 14.3 °F 998.9 in Calm     77 % 0.0 in 536.0 W/m2 CLR
10:07 18.6 °F 13.7 °F 998.9 in Calm     73 % 0.0 in 550.0 W/m2 CLR
10:12 18.8 °F 13.0 °F 998.9 in Calm     69 % 0.0 in 566.0 W/m2 CLR
10:17 19.0 °F 12.3 °F 998.9 in Calm     65 % 0.0 in 584.0 W/m2 CLR
10:22 19.3 °F 12.8 °F 999.2 in WSW 9.3 mph 9.3 mph 66 % 0.0 in 642.0 W/m2 CLR
10:27 19.5 °F 11.5 °F 999.2 in West 11.1 mph 11.1 mph 60 % 0.0 in 671.0 W/m2 CLR
10:32 19.6 °F 11.6 °F 999.2 in WSW 9.7 mph 9.7 mph 60 % 0.0 in 281.0 W/m2 CLR
10:37 19.8 °F 11.3 °F 999.2 in SSW 5.6 mph 5.6 mph 58 % 0.0 in 703.0 W/m2 CLR
10:42 20.3 °F 12.5 °F 998.9 in Calm     61 % 0.0 in 765.0 W/m2 CLR
10:47 20.1 °F 11.0 °F 999.2 in West 7.4 mph 7.4 mph 56 % 0.0 in 118.0 W/m2 CLR
10:52 19.9 °F 11.7 °F 999.2 in West 9.3 mph 9.3 mph 59 % 0.0 in 262.0 W/m2 CLR
10:57 20.1 °F 11.6 °F 999.2 in WSW 9.7 mph 9.7 mph 58 % 0.0 in 202.0 W/m2 CLR
11:02 20.1 °F 11.3 °F 999.2 in SW 9.3 mph 9.3 mph 57 % 0.0 in 248.0 W/m2 CLR
11:07 20.4 °F 11.4 °F 998.9 in WSW 20.4 mph 20.4 mph 56 % 0.0 in 782.0 W/m2 CLR
11:12 20.6 °F 11.5 °F 998.9 in WSW 7.4 mph 7.4 mph 56 % 0.0 in 352.0 W/m2 CLR
11:17 20.6 °F 11.7 °F 998.9 in South 8.0 mph 8.0 mph 57 % 0.0 in 362.0 W/m2 CLR
11:22 20.4 °F 10.8 °F 998.9 in SW 13.0 mph 13.0 mph 54 % 0.0 in 306.0 W/m2 CLR
11:27 20.4 °F 10.5 °F 998.9 in South 8.0 mph 8.0 mph 53 % 0.0 in 246.0 W/m2 CLR
11:32 20.4 °F 11.3 °F 998.9 in SW 4.8 mph 4.8 mph 56 % 0.0 in 216.0 W/m2 CLR
11:38 20.3 °F 10.7 °F 998.9 in SW 11.1 mph 11.1 mph 54 % 0.0 in 220.0 W/m2 CLR
11:43 20.3 °F 10.7 °F 998.9 in SW 6.4 mph 6.4 mph 54 % 0.0 in 253.0 W/m2 CLR
11:48 20.4 °F 9.9 °F 998.9 in West 20.4 mph 20.4 mph 51 % 0.0 in 318.0 W/m2 CLR
11:53 20.5 °F 9.7 °F 998.9 in West 14.8 mph 14.8 mph 50 % 0.0 in 330.0 W/m2 CLR
11:58 20.6 °F 10.1 °F 998.9 in West 14.5 mph 14.5 mph 51 % 0.0 in 320.0 W/m2 CLR
12:03 21.1 °F 10.6 °F 998.9 in SW 11.1 mph 11.1 mph 51 % 0.0 in 320.0 W/m2 CLR
12:08 21.4 °F 9.9 °F 999.2 in West 13.0 mph 13.0 mph 48 % 0.0 in 378.0 W/m2 CLR
12:13 21.1 °F 9.3 °F 999.2 in WNW 13.0 mph 13.0 mph 47 % 0.0 in 292.0 W/m2 CLR
12:18 21.1 °F 9.3 °F 999.2 in West 20.4 mph 20.4 mph 47 % 0.0 in 223.0 W/m2 CLR
12:23 20.9 °F 9.2 °F 999.2 in West 27.8 mph 27.8 mph 47 % 0.0 in 221.0 W/m2 CLR
12:28 20.6 °F 8.9 °F 999.5 in NW 35.2 mph 35.2 mph 47 % 0.0 in 258.0 W/m2 CLR
12:33 20.0 °F 10.9 °F 999.9 in NW 42.6 mph 42.6 mph 56 % 0.0 in 339.0 W/m2 CLR
12:38 19.3 °F 10.8 °F 999.5 in WNW 31.5 mph 31.5 mph 58 % 0.0 in 1076.0 W/m2 CLR
12:43 19.1 °F 11.4 °F 999.5 in WNW 29.6 mph 29.6 mph 61 % 0.0 in 1014.0 W/m2 CLR
12:48 19.3 °F 12.1 °F 999.5 in NW 20.4 mph 20.4 mph 63 % 0.0 in 1041.0 W/m2 CLR
12:53 19.6 °F 11.3 °F 999.5 in NNW 18.5 mph 18.5 mph 59 % 0.0 in 371.0 W/m2 CLR
12:58 19.6 °F 11.1 °F 999.5 in West 9.3 mph 9.3 mph 58 % 0.0 in 369.0 W/m2 CLR
13:03 19.8 °F 10.8 °F 999.5 in WSW 11.1 mph 11.1 mph 56 % 0.0 in 661.0 W/m2 CLR
13:08 20.1 °F 10.7 °F 999.5 in WSW 7.4 mph 7.4 mph 55 % 0.0 in 475.0 W/m2 CLR
13:13 20.3 °F 10.7 °F 999.5 in SW 14.8 mph 14.8 mph 54 % 0.0 in 302.0 W/m2 CLR
13:18 20.7 °F 10.2 °F 999.5 in SW 24.1 mph 24.1 mph 51 % 0.0 in 396.0 W/m2 CLR
13:23 20.9 °F 10.7 °F 999.5 in WSW 6.4 mph 6.4 mph 52 % 0.0 in 566.0 W/m2 CLR
13:28 21.2 °F 10.7 °F 999.5 in West 13.0 mph 13.0 mph 51 % 0.0 in 1048.0 W/m2 CLR
13:33 21.6 °F 10.4 °F 999.5 in NNW 11.1 mph 11.1 mph 49 % 0.0 in 1185.0 W/m2 CLR
13:38 21.8 °F 9.7 °F 999.2 in WSW 9.3 mph 9.3 mph 46 % 0.0 in 1179.0 W/m2 CLR
13:43 21.9 °F 10.7 °F 999.2 in Calm     49 % 0.0 in 1185.0 W/m2 CLR
13:48 22.2 °F 9.4 °F 999.2 in NNW 18.5 mph 18.5 mph 44 % 0.0 in 415.0 W/m2 CLR
13:53 21.9 °F 12.5 °F 999.5 in North 16.7 mph 16.7 mph 55 % 0.0 in 415.0 W/m2 CLR
13:58 21.9 °F 11.3 °F 999.2 in Calm     51 % 0.0 in 1202.0 W/m2 CLR
14:03 22.1 °F 10.2 °F 999.2 in Calm     47 % 0.0 in 496.0 W/m2 CLR
14:08 22.4 °F 11.4 °F 999.2 in Calm     50 % 0.0 in 1306.0 W/m2 CLR
14:13 22.8 °F 12.2 °F 999.2 in West 11.3 mph 11.3 mph 51 % 0.0 in 346.0 W/m2 CLR
14:18 22.5 °F 10.9 °F 999.2 in WNW 22.2 mph 22.2 mph 48 % 0.0 in 422.0 W/m2 CLR
14:23 21.9 °F 10.7 °F 999.5 in NW 29.6 mph 29.6 mph 49 % 0.0 in 283.0 W/m2 CLR
14:28 21.5 °F 10.9 °F 999.5 in NW 18.5 mph 18.5 mph 51 % 0.0 in 415.0 W/m2 CLR
14:33 21.4 °F 11.2 °F 999.5 in NW 18.5 mph 18.5 mph 52 % 0.0 in 278.0 W/m2 CLR
14:38 21.4 °F 10.3 °F 999.5 in NNW 29.6 mph 29.6 mph 49 % 0.0 in 322.0 W/m2 CLR
14:43 21.6 °F 10.1 °F 999.9 in North 25.9 mph 25.9 mph 48 % 0.0 in 322.0 W/m2 CLR
14:48 21.7 °F 9.8 °F 999.9 in North 16.7 mph 16.7 mph 47 % 0.0 in 443.0 W/m2 CLR
14:54 22.0 °F 10.2 °F 999.5 in NW 18.5 mph 18.5 mph 47 % 0.0 in 302.0 W/m2 CLR
14:59 21.9 °F 9.7 °F 999.5 in WNW 25.9 mph 25.9 mph 46 % 0.0 in 260.0 W/m2 CLR
15:04 21.7 °F 9.8 °F 999.5 in NW 22.2 mph 22.2 mph 47 % 0.0 in 250.0 W/m2 CLR
15:09 21.7 °F 10.2 °F 999.5 in WNW 18.5 mph 18.5 mph 48 % 0.0 in 313.0 W/m2 CLR
15:14 22.1 °F 10.6 °F 999.5 in NW 18.5 mph 18.5 mph 48 % 0.0 in 497.0 W/m2 CLR
15:19 22.2 °F 10.0 °F 999.5 in West 24.1 mph 24.1 mph 46 % 0.0 in 197.0 W/m2 CLR
15:24 21.8 °F 8.7 °F 999.5 in WNW 9.3 mph 9.3 mph 43 % 0.0 in 190.0 W/m2 CLR
15:29 21.8 °F 9.3 °F 999.9 in WSW 18.5 mph 18.5 mph 45 % 0.0 in 285.0 W/m2 CLR
15:34 21.9 °F 9.4 °F 999.9 in West 22.2 mph 22.2 mph 45 % 0.0 in 265.0 W/m2 CLR
15:39 21.9 °F 8.8 °F 999.9 in West 14.8 mph 14.8 mph 43 % 0.0 in 290.0 W/m2 CLR
15:44 21.8 °F 8.7 °F 999.5 in WSW 7.4 mph 7.4 mph 43 % 0.0 in 250.0 W/m2 CLR
15:49 21.9 °F 9.4 °F 999.5 in WNW 7.4 mph 7.4 mph 45 % 0.0 in 262.0 W/m2 CLR
15:54 22.3 °F 9.5 °F 999.5 in NW 9.3 mph 9.3 mph 44 % 0.0 in 348.0 W/m2 CLR
15:59 22.5 °F 8.6 °F 999.5 in West 7.4 mph 7.4 mph 41 % 0.0 in 322.0 W/m2 CLR
16:04 22.6 °F 9.3 °F 999.5 in NW 16.7 mph 16.7 mph 43 % 0.0 in 271.0 W/m2 CLR
16:09 22.3 °F 8.8 °F 999.5 in NW 18.5 mph 18.5 mph 42 % 0.0 in 334.0 W/m2 CLR
16:14 22.5 °F 8.9 °F 999.5 in NE 8.0 mph 8.0 mph 42 % 0.0 in 388.0 W/m2 CLR
16:19 22.9 °F 9.3 °F 999.5 in NW 18.5 mph 18.5 mph 42 % 0.0 in 438.0 W/m2 CLR
16:24 23.3 °F 9.7 °F 999.2 in NNW 5.6 mph 5.6 mph 42 % 0.0 in 965.0 W/m2 CLR
16:29 23.5 °F 10.2 °F 999.2 in NW 18.5 mph 18.5 mph 43 % 0.0 in 330.0 W/m2 CLR
16:34 23.3 °F 9.3 °F 999.5 in NW 25.9 mph 25.9 mph 41 % 0.0 in 1014.0 W/m2 CLR
16:39 23.4 °F 9.7 °F 999.2 in WNW 18.5 mph 18.5 mph 42 % 0.0 in 1062.0 W/m2 CLR
16:44 23.4 °F 8.7 °F 999.2 in WNW 18.5 mph 18.5 mph 39 % 0.0 in 320.0 W/m2 CLR
16:49 23.4 °F 9.4 °F 999.2 in WNW 8.0 mph 8.0 mph 41 % 0.0 in 962.0 W/m2 CLR
16:54 23.9 °F 9.1 °F 999.2 in NW 20.4 mph 20.4 mph 39 % 0.0 in 874.0 W/m2 CLR
16:59 23.9 °F 8.7 °F 999.2 in West 7.4 mph 7.4 mph 38 % 0.0 in 951.0 W/m2 CLR
17:04 23.9 °F 9.8 °F 999.2 in NNW 18.5 mph 18.5 mph 41 % 0.0 in 531.0 W/m2 CLR
17:09 23.9 °F 9.9 °F 999.2 in NW 18.5 mph 18.5 mph 41 % 0.0 in 872.0 W/m2 CLR
17:14 24.0 °F 9.2 °F 999.2 in NW 20.9 mph 20.9 mph 39 % 0.0 in 828.0 W/m2 CLR
17:19 23.4 °F 9.0 °F 999.5 in NW 14.8 mph 14.8 mph 40 % 0.0 in 225.0 W/m2 CLR
17:24 23.1 °F 9.1 °F 999.5 in NNW 12.9 mph 12.9 mph 41 % 0.0 in 155.0 W/m2 CLR
17:29 22.8 °F 8.9 °F 999.5 in West 5.6 mph 5.6 mph 41 % 0.0 in 185.0 W/m2 CLR
17:34 22.8 °F 9.2 °F 999.5 in NW 5.6 mph 5.6 mph 42 % 0.0 in 148.0 W/m2 CLR
17:39 22.8 °F 9.2 °F 999.5 in NW 8.0 mph 8.0 mph 42 % 0.0 in 146.0 W/m2 CLR
17:44 22.6 °F 8.3 °F 999.5 in NNW 18.5 mph 18.5 mph 40 % 0.0 in 113.0 W/m2 CLR
17:49 22.4 °F 8.9 °F 999.5 in NNW 17.7 mph 17.7 mph 42 % 0.0 in 90.0 W/m2 CLR
17:54 22.2 °F 9.1 °F 999.5 in NW 18.5 mph 18.5 mph 43 % 0.0 in 83.0 W/m2 CLR
17:59 21.8 °F 9.0 °F 999.5 in North 20.4 mph 20.4 mph 44 % 0.0 in 142.0 W/m2 CLR
18:04 21.5 °F 9.4 °F 999.9 in NNW 20.4 mph 20.4 mph 46 % 0.0 in 230.0 W/m2 CLR
18:05 21.4 °F 9.3 °F 999.9 in North 20.4 mph 20.4 mph 46 % 0.0 in 230.0 W/m2 CLR
18:10 21.5 °F 9.4 °F 999.5 in NNW 14.8 mph 14.8 mph 46 % 0.0 in 341.0 W/m2 CLR
18:15 22.1 °F 10.2 °F 999.5 in NNW 3.2 mph 3.2 mph 47 % 0.0 in 605.0 W/m2 CLR
18:20 22.6 °F 9.4 °F 999.5 in Calm     43 % 0.0 in 149.0 W/m2 CLR
18:25 22.8 °F 9.6 °F 999.5 in Calm     43 % 0.0 in 151.0 W/m2 CLR
18:30 22.8 °F 9.6 °F 999.5 in Calm     43 % 0.0 in 186.0 W/m2 CLR
18:35 22.9 °F 9.3 °F 999.5 in Calm   0.6 mph 42 % 0.0 in 504.0 W/m2 CLR
18:40 23.1 °F 8.8 °F 999.5 in Calm     40 % 0.0 in 193.0 W/m2 CLR
18:45 23.2 °F 8.8 °F 999.5 in NNW 8.0 mph 8.0 mph 40 % 0.0 in 392.0 W/m2 CLR
18:50 23.5 °F 9.1 °F 999.5 in West 7.4 mph 7.4 mph 40 % 0.0 in 473.0 W/m2 CLR
18:55 23.9 °F 9.1 °F 999.2 in Calm     39 % 0.0 in 450.0 W/m2 CLR
19:00 24.3 °F 9.1 °F 999.5 in WSW 11.3 mph 11.3 mph 38 % 0.0 in 443.0 W/m2 CLR
19:05 24.2 °F 7.8 °F 999.5 in West 13.0 mph 13.0 mph 35 % 0.0 in 301.0 W/m2 CLR
19:10 24.1 °F 7.7 °F 999.5 in SW 7.4 mph 7.4 mph 35 % 0.0 in 343.0 W/m2 CLR
19:15 24.2 °F 8.2 °F 999.5 in West 30.6 mph 30.6 mph 36 % 0.0 in 188.0 W/m2 CLR
19:20 23.9 °F 7.6 °F 999.5 in West 11.1 mph 11.1 mph 35 % 0.0 in 294.0 W/m2 CLR
19:25 23.9 °F 7.9 °F 999.5 in WNW 22.5 mph 22.5 mph 36 % 0.0 in 269.0 W/m2 CLR
19:30 23.7 °F 7.7 °F 999.2 in West 24.1 mph 24.1 mph 36 % 0.0 in 70.0 W/m2 CLR
19:35 23.4 °F 8.3 °F 999.5 in WNW 24.1 mph 24.1 mph 38 % 0.0 in 272.0 W/m2 CLR
19:40 23.6 °F 8.4 °F 999.5 in WNW 22.2 mph 22.2 mph 38 % 0.0 in 229.0 W/m2 CLR
19:45 23.4 °F 8.3 °F 999.5 in NW 11.1 mph 11.1 mph 38 % 0.0 in 141.0 W/m2 CLR
19:50 23.2 °F 8.1 °F 999.5 in WNW 16.7 mph 16.7 mph 38 % 0.0 in 86.0 W/m2 CLR
19:55 22.9 °F 7.4 °F 999.5 in West 20.4 mph 20.4 mph 37 % 0.0 in 63.0 W/m2 CLR
20:00 22.7 °F 8.0 °F 999.9 in WNW 18.5 mph 18.5 mph 39 % 0.0 in 56.0 W/m2 FEW
20:05 22.5 °F 8.2 °F 999.9 in WNW 11.1 mph 11.1 mph 40 % 0.0 in 47.0 W/m2 SCT
20:11 22.3 °F 8.4 °F 999.9 in WNW 6.4 mph 6.4 mph 41 % 0.0 in 42.0 W/m2 BKN
20:16 22.1 °F 8.6 °F 999.9 in NW 3.7 mph   42 % 0.0 in 40.0 W/m2 SCT
20:21 22.0 °F 8.5 °F 999.9 in Calm     42 % 0.0 in 28.0 W/m2 BKN
20:26 21.9 °F 8.7 °F 1000.2 in Calm     43 % 0.0 in 21.0 W/m2 BKN
20:31 21.8 °F 9.0 °F 1000.2 in Calm     44 % 0.0 in 14.0 W/m2 BKN
20:36 21.7 °F 8.2 °F 1000.2 in Calm     42 % 0.0 in 11.0 W/m2 BKN
20:41 21.6 °F 8.8 °F 1000.6 in Calm     44 % 0.0 in 11.0 W/m2 BKN
20:46 21.5 °F 9.1 °F 1000.6 in Calm     45 % 0.0 in 9.0 W/m2 BKN
20:51 21.3 °F 9.2 °F 1000.6 in Calm     46 % 0.0 in 7.0 W/m2 BKN
20:56 21.2 °F 9.7 °F 1000.6 in Calm     48 % 0.0 in 5.0 W/m2 OVC
20:57 21.1 °F 9.3 °F 1000.6 in Calm     47 % 0.0 in 5.0 W/m2 OVC
21:02 20.9 °F 9.5 °F 1000.9 in Calm     48 % 0.0 in 0.0 W/m2 OVC
21:07 20.7 °F 9.3 °F 1000.9 in Calm     48 % 0.0 in 0.0 W/m2 OVC
21:12 20.6 °F 9.8 °F 1000.9 in Calm     50 % 0.0 in 0.0 W/m2 OVC
21:17 20.4 °F 9.6 °F 1000.9 in Calm     50 % 0.0 in 0.0 W/m2 CLR
21:22 20.3 °F 9.3 °F 1001.2 in Calm     49 % 0.0 in 0.0 W/m2 CLR
21:27 20.3 °F 8.9 °F 1001.2 in Calm     48 % 0.0 in 0.0 W/m2 CLR
21:32 20.3 °F 8.9 °F 1001.2 in Calm     48 % 0.0 in 0.0 W/m2 CLR
21:33 20.3 °F 9.8 °F 1001.2 in Calm     51 % 0.0 in 0.0 W/m2 CLR
21:38 20.2 °F 8.6 °F 1001.6 in WNW 14.8 mph 14.8 mph 47 % 0.0 in 0.0 W/m2 CLR
21:43 20.4 °F 8.4 °F 1001.6 in NW 13.0 mph 13.0 mph 46 % 0.0 in 0.0 W/m2 CLR
21:48 20.6 °F 8.6 °F 1001.9 in WNW 11.1 mph 11.1 mph 46 % 0.0 in 0.0 W/m2 CLR
21:53 20.5 °F 8.8 °F 1001.9 in WNW 7.4 mph 7.4 mph 47 % 0.0 in 0.0 W/m2 CLR
21:58 20.3 °F 8.9 °F 1001.9 in NW 5.6 mph 5.6 mph 48 % 0.0 in 0.0 W/m2 CLR
22:03 20.2 °F 8.6 °F 1001.9 in WNW 5.6 mph 5.8 mph 47 % 0.0 in 0.0 W/m2 CLR
22:05 20.2 °F 8.6 °F 1001.9 in WNW 7.4 mph 7.4 mph 47 % 0.0 in 0.0 W/m2 CLR
22:10 20.1 °F 8.8 °F 1002.3 in WNW 5.6 mph 5.6 mph 48 % 0.0 in 0.0 W/m2 CLR
22:15 20.0 °F 8.3 °F 1002.3 in NW 9.3 mph 9.3 mph 47 % 0.0 in 0.0 W/m2 CLR
22:20 20.0 °F 8.3 °F 1002.3 in WNW 13.0 mph 13.0 mph 47 % 0.0 in 0.0 W/m2 CLR
22:25 19.9 °F 8.8 °F 1002.3 in WNW 11.1 mph 11.1 mph 49 % 0.0 in 0.0 W/m2 CLR
22:30 19.9 °F 7.9 °F 1002.3 in WNW 27.8 mph 27.8 mph 46 % 0.0 in 0.0 W/m2 CLR
22:35 20.1 °F 8.1 °F 1002.6 in WNW 30.6 mph 30.6 mph 46 % 0.0 in 0.0 W/m2 CLR
22:40 20.2 °F 8.2 °F 1002.6 in WNW 24.1 mph 24.1 mph 46 % 0.0 in 0.0 W/m2 CLR
22:45 20.1 °F 8.1 °F 1002.6 in WNW 25.9 mph 25.9 mph 46 % 0.0 in 0.0 W/m2 CLR
22:50 20.1 °F 7.7 °F 1002.6 in West 27.8 mph 27.8 mph 45 % 0.0 in 0.0 W/m2 CLR
22:55 19.9 °F 7.9 °F 1002.6 in NW 31.5 mph 31.5 mph 46 % 0.0 in 0.0 W/m2 CLR
23:00 19.9 °F 7.6 °F 1002.9 in WNW 27.8 mph 27.8 mph 45 % 0.0 in 0.0 W/m2 CLR
23:05 19.8 °F 7.8 °F 1002.9 in West 22.2 mph 22.2 mph 46 % 0.0 in 0.0 W/m2 CLR
23:10 19.8 °F 7.8 °F 1002.9 in West 24.1 mph 24.1 mph 46 % 0.0 in 0.0 W/m2 CLR
23:15 19.8 °F 7.8 °F 1002.9 in WNW 27.8 mph 27.8 mph 46 % 0.0 in 0.0 W/m2 CLR
23:20 19.7 °F 7.8 °F 1002.9 in West 24.1 mph 24.1 mph 46 % 0.0 in 0.0 W/m2 CLR
23:25 19.7 °F 7.7 °F 1002.9 in West 18.5 mph 18.5 mph 46 % 0.0 in 0.0 W/m2 CLR
23:30 19.5 °F 7.9 °F 1002.9 in West 20.4 mph 20.4 mph 47 % 0.0 in 0.0 W/m2 CLR
23:35 19.4 °F 7.8 °F 1002.9 in West 18.5 mph 18.5 mph 47 % 0.0 in 0.0 W/m2 CLR
23:40 19.4 °F 7.8 °F 1002.9 in West 22.5 mph 22.5 mph 47 % 0.0 in 0.0 W/m2 CLR
23:45 19.3 °F 7.4 °F 1003.3 in West 25.9 mph 25.9 mph 46 % 0.0 in 0.0 W/m2 CLR
23:50 19.3 °F 7.7 °F 1002.9 in West 29.6 mph 29.6 mph 47 % 0.0 in 0.0 W/m2 CLR
23:55 19.2 °F 7.6 °F 1003.3 in West 31.5 mph 31.5 mph 47 % 0.0 in 0.0 W/m2 CLR
Lo Temps de Massalio
Compliments of Weather Underground - 1.25 mb